Roatan, Honduras
Current Conditions -  °F | °C
As of 8:00 PM on Friday 28 Nov 2014 (Local Time) from MHRO Reporting Station
Broken Clouds Broken Clouds  
Wind Chill: 79°   Ceiling: 7000
Heat Index: 81°   Visibility: 6mi
Dew Point: 64°   Wind: 17mph
Humidity: 61%   Direction: 60°ENE
Pressure: 30.06"   Gusts: NA
Location:  16.33°N, 86.52°W
Report Text: MHRO 290200Z 06015KT 9999 SCT020 BKN070 26/18 Q1018 A3006NOSIG
Loading
Personal Weather Stations






























Interactive Weather Map New forecast layout! Learn more

10-Day Weather Forecast

Advertisements
Track Severe Weather on mobile